Time;durP1;ratioP1;P1;durP2;ratioP2;P2;SDS_P1;SDS_P2;PMS_P1;PMS_P2;Temp;Humidity;BMP_temperature;BMP_pressure;BME280_temperature;BME280_humidity;BME280_pressure;Samples;Min_cycle;Max_cycle;Signal;HPM_P1;HPM_P2
2023/03/17 00:00:05;;;;;;;1.77;1.50;;;20.10;50.70;;;;;;5032060;28;20241;-72
2023/03/17 00:02:53;;;;;;;4.60;1.65;;;20.10;50.80;;;;;;5031845;28;20285;-71
2023/03/17 00:05:43;;;;;;;3.65;1.80;;;20.00;50.60;;;;;;5031540;28;20206;-72
2023/03/17 00:08:33;;;;;;;1.77;1.67;;;20.10;50.80;;;;;;5032773;28;20701;-71
2023/03/17 00:11:21;;;;;;;3.30;1.88;;;20.10;50.80;;;;;;5031963;28;20281;-71
2023/03/17 00:14:09;;;;;;;1.90;1.50;;;20.20;50.80;;;;;;5032640;28;20198;-71
2023/03/17 00:16:57;;;;;;;1.77;1.67;;;20.20;50.80;;;;;;5031181;28;20229;-71
2023/03/17 00:19:45;;;;;;;3.42;1.83;;;20.30;50.70;;;;;;5030990;28;20293;-71
2023/03/17 00:22:34;;;;;;;2.72;1.85;;;20.30;50.50;;;;;;5032135;28;20327;-72
2023/03/17 00:25:26;;;;;;;1.85;1.75;;;20.40;50.40;;;;;;5031956;28;20206;-72
2023/03/17 00:28:18;;;;;;;2.58;1.48;;;20.50;50.40;;;;;;5031037;28;20690;-72
2023/03/17 00:31:13;;;;;;;2.65;1.67;;;20.50;50.40;;;;;;5032509;28;20264;-72
2023/03/17 00:34:01;;;;;;;2.33;1.58;;;20.50;50.30;;;;;;5032154;28;20332;-71
2023/03/17 00:36:50;;;;;;;2.00;1.77;;;20.40;50.20;;;;;;5031782;28;20538;-72
2023/03/17 00:39:40;;;;;;;1.60;1.50;;;20.40;50.10;;;;;;5031329;28;20259;-72
2023/03/17 00:42:28;;;;;;;2.08;1.88;;;20.40;50.40;;;;;;5030937;28;20237;-71
2023/03/17 00:45:17;;;;;;;2.40;1.90;;;20.30;50.20;;;;;;5031965;28;20202;-72
2023/03/17 00:48:12;;;;;;;1.70;1.40;;;20.30;50.00;;;;;;5030717;28;20307;-72
2023/03/17 00:51:00;;;;;;;2.83;2.05;;;20.30;50.20;;;;;;5035601;28;20719;-72
2023/03/17 00:53:48;;;;;;;1.55;1.45;;;20.20;50.10;;;;;;5034849;28;20586;-72
2023/03/17 00:56:40;;;;;;;2.10;1.67;;;20.20;50.30;;;;;;5035982;28;20240;-72
2023/03/17 00:59:30;;;;;;;2.17;1.98;;;20.20;50.40;;;;;;5035774;28;20230;-72
2023/03/17 01:02:19;;;;;;;1.73;1.63;;;20.10;50.50;;;;;;5035000;28;20198;-72
2023/03/17 01:05:07;;;;;;;2.25;2.05;;;20.10;50.50;;;;;;5035127;28;20700;-72
2023/03/17 01:07:57;;;;;;;2.65;1.90;;;20.10;65.80;;;;;;5033954;28;20237;-72
2023/03/17 01:10:45;;;;;;;2.08;1.88;;;20.20;50.80;;;;;;5033652;28;20257;-72
2023/03/17 01:13:35;;;;;;;2.72;2.33;;;20.20;50.60;;;;;;5033894;28;20237;-71
2023/03/17 01:16:23;;;;;;;1.83;1.70;;;20.20;50.60;;;;;;5034091;28;20205;-72
2023/03/17 01:19:13;;;;;;;1.55;1.45;;;20.20;50.50;;;;;;5034222;28;20224;-72
2023/03/17 01:22:02;;;;;;;2.92;1.80;;;20.20;50.60;;;;;;5034617;28;20308;-72
2023/03/17 01:24:50;;;;;;;1.85;1.75;;;20.20;50.60;;;;;;5035349;28;20205;-71
2023/03/17 01:27:39;;;;;;;1.77;1.67;;;20.20;50.50;;;;;;5033618;28;20198;-71
2023/03/17 01:30:31;;;;;;;2.28;1.60;;;20.30;50.00;;;;;;5034052;28;20210;-72
2023/03/17 01:33:19;;;;;;;4.03;2.10;;;20.30;50.40;;;;;;5034175;28;20335;-72
2023/03/17 01:36:09;;;;;;;2.78;2.00;;;20.40;50.40;;;;;;5034408;28;20202;-72
2023/03/17 01:38:57;;;;;;;3.55;2.03;;;20.40;50.10;;;;;;5033665;28;20214;-72
2023/03/17 01:41:45;;;;;;;3.60;2.13;;;20.50;50.20;;;;;;5033323;28;20709;-72
2023/03/17 01:44:34;;;;;;;2.90;2.40;;;20.50;50.30;;;;;;5033684;28;20214;-72
2023/03/17 01:47:25;;;;;;;2.55;2.35;;;20.40;50.10;;;;;;5033698;28;20247;-71
2023/03/17 01:50:13;;;;;;;4.13;2.17;;;20.40;50.10;;;;;;5033578;28;20251;-71
2023/03/17 01:53:02;;;;;;;3.05;2.33;;;20.40;50.20;;;;;;5033802;28;20357;-72
2023/03/17 01:55:51;;;;;;;3.75;2.70;;;20.30;50.20;;;;;;5033106;28;20279;-72
2023/03/17 01:58:40;;;;;;;4.78;2.67;;;20.20;50.00;;;;;;5061501;22;20317;-69
2023/03/17 02:01:33;;;;;;;2.88;2.67;;;20.20;50.00;;;;;;5051858;28;20198;-73
2023/03/17 02:04:24;;;;;;;3.47;2.10;;;20.20;50.30;;;;;;5052944;28;20245;-71
2023/03/17 02:07:13;;;;;;;3.40;3.05;;;20.10;50.30;;;;;;5053140;28;20668;-70
2023/03/17 02:10:03;;;;;;;2.97;2.67;;;20.10;50.40;;;;;;5053206;28;20253;-69
2023/03/17 02:12:55;;;;;;;3.00;2.80;;;20.10;50.50;;;;;;5052897;28;20262;-70
2023/03/17 02:15:47;;;;;;;3.22;2.60;;;20.10;50.40;;;;;;5053087;28;20280;-70
2023/03/17 02:18:35;;;;;;;2.28;2.08;;;20.10;50.50;;;;;;5052928;28;20719;-72
2023/03/17 02:21:37;;;;;;;3.17;2.17;;;20.20;50.50;;;;;;5052947;28;20335;-70
2023/03/17 02:24:30;;;;;;;6.10;2.30;;;20.30;50.50;;;;;;5053097;28;20209;-71
2023/03/17 02:27:22;;;;;;;2.90;2.47;;;20.20;50.40;;;;;;5053129;28;20201;-72
2023/03/17 02:30:15;;;;;;;2.03;1.92;;;20.30;50.40;;;;;;5049783;28;20253;-71
2023/03/17 02:33:03;;;;;;;4.13;2.53;;;20.30;50.40;;;;;;5052328;28;20206;-70
2023/03/17 02:35:51;;;;;;;3.35;2.67;;;20.30;50.30;;;;;;5052051;28;20348;-70
2023/03/17 02:38:41;;;;;;;2.55;2.03;;;20.30;50.20;;;;;;5051903;28;20225;-71
2023/03/17 02:41:29;;;;;;;4.45;3.03;;;20.30;50.20;;;;;;5051726;28;20197;-71
2023/03/17 02:44:17;;;;;;;2.50;2.30;;;20.30;50.30;;;;;;5052574;28;20236;-68
2023/03/17 02:47:06;;;;;;;3.55;2.60;;;20.30;50.30;;;;;;5052032;28;20350;-70
2023/03/17 02:49:55;;;;;;;3.25;2.30;;;20.30;50.10;;;;;;5053171;28;20312;-69
2023/03/17 02:52:43;;;;;;;3.33;2.60;;;20.30;50.10;;;;;;5052410;28;20197;-70
2023/03/17 02:55:32;;;;;;;3.67;2.28;;;20.30;49.90;;;;;;5052160;28;20225;-67
2023/03/17 02:58:20;;;;;;;4.30;2.55;;;20.80;65.60;;;;;;5052072;28;20202;-68
2023/03/17 03:01:09;;;;;;;3.95;2.50;;;20.30;50.10;;;;;;5052229;28;20200;-68
2023/03/17 03:03:58;;;;;;;3.05;2.63;;;20.20;50.00;;;;;;5052101;28;20197;-67
2023/03/17 03:06:46;;;;;;;3.30;2.80;;;20.20;49.90;;;;;;5051538;28;20279;-71
2023/03/17 03:09:34;;;;;;;2.97;2.70;;;20.10;50.10;;;;;;5052632;28;20221;-68
2023/03/17 03:12:24;;;;;;;3.20;2.65;;;20.10;50.20;;;;;;5051289;28;20224;-70
2023/03/17 03:15:12;;;;;;;2.83;2.63;;;20.10;50.20;;;;;;5052220;28;20251;-70
2023/03/17 03:18:00;;;;;;;2.97;2.50;;;20.00;50.30;;;;;;5052622;28;20259;-71
2023/03/17 03:20:48;;;;;;;3.05;2.60;;;20.10;50.40;;;;;;5050124;28;20289;-71
2023/03/17 03:23:36;;;;;;;3.78;2.95;;;20.20;50.50;;;;;;5051491;28;20205;-64
2023/03/17 03:26:24;;;;;;;3.00;2.20;;;20.20;50.40;;;;;;5052120;28;20222;-68
2023/03/17 03:29:14;;;;;;;3.08;2.83;;;20.30;50.40;;;;;;5051830;28;20722;-70
2023/03/17 03:32:02;;;;;;;3.38;3.00;;;20.30;50.20;;;;;;5051283;28;20709;-69
2023/03/17 03:34:50;;;;;;;5.15;2.75;;;20.40;50.30;;;;;;5052067;28;20331;-69
2023/03/17 03:37:38;;;;;;;3.20;2.67;;;20.40;50.20;;;;;;5052110;28;20882;-70
2023/03/17 03:40:27;;;;;;;3.60;2.92;;;20.40;50.10;;;;;;5051664;28;20720;-68
2023/03/17 03:43:15;;;;;;;3.28;2.60;;;20.40;50.20;;;;;;5050457;28;20197;-66
2023/03/17 03:46:12;;;;;;;3.22;2.63;;;20.40;50.10;;;;;;5050818;28;20673;-69
2023/03/17 03:49:00;;;;;;;2.50;2.38;;;20.30;50.00;;;;;;5051040;28;20229;-68
2023/03/17 03:51:48;;;;;;;3.30;2.80;;;20.30;50.10;;;;;;5050825;28;20260;-70
2023/03/17 03:54:36;;;;;;;3.13;2.75;;;20.20;50.00;;;;;;5051522;28;20232;-67
2023/03/17 03:57:24;;;;;;;5.20;3.38;;;20.20;49.90;;;;;;5051557;28;20240;-67
2023/03/17 04:00:13;;;;;;;3.17;2.88;;;20.20;49.80;;;;;;5050594;28;20260;-71
2023/03/17 04:03:03;;;;;;;3.20;2.92;;;20.10;49.90;;;;;;5050687;28;20284;-70
2023/03/17 04:05:51;;;;;;;3.50;3.20;;;20.10;49.90;;;;;;5050802;28;20200;-69
2023/03/17 04:08:39;;;;;;;3.85;2.35;;;20.10;50.20;;;;;;5050629;28;20298;-69
2023/03/17 04:11:27;;;;;;;6.00;3.60;;;20.10;50.30;;;;;;5049970;28;20271;-70
2023/03/17 04:14:15;;;;;;;3.00;2.25;;;20.10;50.40;;;;;;5051120;28;20252;-71
2023/03/17 04:17:04;;;;;;;3.50;3.20;;;20.20;50.30;;;;;;5051000;28;20648;-66
2023/03/17 04:19:53;;;;;;;3.35;2.83;;;20.20;50.30;;;;;;5051087;28;20306;-71
2023/03/17 04:22:42;;;;;;;5.90;3.10;;;20.20;50.20;;;;;;5050777;28;20193;-70
2023/03/17 04:25:31;;;;;;;3.20;2.90;;;20.20;50.30;;;;;;5053669;28;20306;-71
2023/03/17 04:28:19;;;;;;;3.10;2.83;;;20.20;64.50;;;;;;5054071;28;20282;-71
2023/03/17 04:31:10;;;;;;;3.35;3.00;;;20.30;50.20;;;;;;5054328;28;20197;-67
2023/03/17 04:33:58;;;;;;;4.57;3.00;;;22.30;51.80;;;;;;5055226;28;20205;-67
2023/03/17 04:36:47;;;;;;;2.90;2.70;;;19.80;49.50;;;;;;5054070;28;20283;-67
2023/03/17 04:39:36;;;;;;;3.50;3.10;;;20.40;50.10;;;;;;5055160;28;20228;-69
2023/03/17 04:42:24;;;;;;;3.78;3.00;;;20.40;49.90;;;;;;5055167;28;20261;-69
2023/03/17 04:45:14;;;;;;;4.60;3.25;;;20.40;50.10;;;;;;5054720;28;20201;-68
2023/03/17 04:48:02;;;;;;;3.20;2.90;;;20.30;49.70;;;;;;5053953;28;20233;-68
2023/03/17 04:50:50;;;;;;;3.67;2.75;;;20.30;49.80;;;;;;5054802;28;20263;-67
2023/03/17 04:53:39;;;;;;;2.95;2.63;;;20.30;50.00;;;;;;5053817;28;20255;-71
2023/03/17 04:56:28;;;;;;;3.78;3.13;;;20.20;49.80;;;;;;5054600;28;20589;-71
2023/03/17 04:59:19;;;;;;;3.40;3.10;;;20.20;49.80;;;;;;5054623;28;20229;-70
2023/03/17 05:02:08;;;;;;;3.70;3.40;;;20.10;49.80;;;;;;5053526;28;20260;-66
2023/03/17 05:04:56;;;;;;;3.05;2.75;;;20.10;49.90;;;;;;5054028;28;20197;-66
2023/03/17 05:07:44;;;;;;;3.50;3.00;;;20.00;50.00;;;;;;5054481;28;20692;-71
2023/03/17 05:10:33;;;;;;;3.22;2.92;;;20.00;50.20;;;;;;5054380;28;20336;-69
2023/03/17 05:13:22;;;;;;;3.63;3.10;;;20.10;50.30;;;;;;5053823;28;20274;-71
2023/03/17 05:16:10;;;;;;;4.32;2.60;;;20.10;50.30;;;;;;5054171;28;20702;-66
2023/03/17 05:18:58;;;;;;;3.83;2.92;;;20.20;51.00;;;;;;5053941;28;20232;-66
2023/03/17 05:21:47;;;;;;;3.72;2.72;;;20.20;50.20;;;;;;5053733;28;20272;-69
2023/03/17 05:24:35;;;;;;;6.25;2.88;;;20.30;50.20;;;;;;5054363;28;20729;-71
2023/03/17 05:27:25;;;;;;;2.90;2.65;;;20.30;50.20;;;;;;5052710;28;20208;-70
2023/03/17 05:30:14;;;;;;;3.28;2.97;;;20.40;50.00;;;;;;5053909;28;20249;-67
2023/03/17 05:33:02;;;;;;;3.70;2.72;;;20.40;49.90;;;;;;5052884;28;20222;-70
2023/03/17 05:35:51;;;;;;;5.13;3.40;;;20.40;49.80;;;;;;5053530;28;20289;-70
2023/03/17 05:38:39;;;;;;;3.92;3.17;;;20.40;49.90;;;;;;5053492;28;20213;-70
2023/03/17 05:41:27;;;;;;;3.47;2.90;;;20.40;49.70;;;;;;5053241;28;20270;-66
2023/03/17 05:44:16;;;;;;;2.97;2.38;;;20.20;49.70;;;;;;5054108;28;20583;-67
2023/03/17 05:47:06;;;;;;;4.38;3.30;;;20.30;49.70;;;;;;5054266;28;20208;-68
2023/03/17 05:49:54;;;;;;;4.07;3.58;;;20.30;49.60;;;;;;5053534;28;20810;-69
2023/03/17 05:52:43;;;;;;;4.28;3.88;;;20.20;49.20;;;;;;5053525;28;20209;-67
2023/03/17 05:55:31;;;;;;;4.15;3.67;;;20.20;49.60;;;;;;5053632;28;20233;-67
2023/03/17 05:58:19;;;;;;;6.57;4.70;;;20.10;64.60;;;;;;5053861;28;20205;-66
2023/03/17 06:01:09;;;;;;;3.97;3.30;;;20.10;49.80;;;;;;5053329;28;20206;-71
2023/03/17 06:03:57;;;;;;;6.32;3.63;;;20.10;50.10;;;;;;5053529;28;20205;-67
2023/03/17 06:06:45;;;;;;;5.35;3.17;;;20.10;50.10;;;;;;5053514;28;20205;-68
2023/03/17 06:09:33;;;;;;;3.45;2.92;;;20.10;50.30;;;;;;5053258;28;20244;-70
2023/03/17 06:12:21;;;;;;;4.63;3.78;;;20.10;50.30;;;;;;5052756;28;20209;-70
2023/03/17 06:15:10;;;;;;;4.68;3.45;;;20.10;50.30;;;;;;5053092;28;20286;-68
2023/03/17 06:17:59;;;;;;;5.15;3.75;;;20.10;50.10;;;;;;5053744;28;20571;-71
2023/03/17 06:20:47;;;;;;;2.80;2.55;;;20.10;50.30;;;;;;5053324;28;20439;-68
2023/03/17 06:23:35;;;;;;;5.15;3.50;;;20.20;50.60;;;;;;5052995;28;20275;-68
2023/03/17 06:26:24;;;;;;;6.93;3.10;;;20.20;50.30;;;;;;5053305;28;20343;-69
2023/03/17 06:29:12;;;;;;;5.65;2.95;;;20.30;50.10;;;;;;5053827;28;20498;-70
2023/03/17 06:32:00;;;;;;;6.50;3.35;;;20.40;50.10;;;;;;5052472;28;20281;-72
2023/03/17 06:35:09;;;;;;;12.40;3.60;;;20.40;49.90;;;;;;5051689;28;20201;-71
2023/03/17 06:37:57;;;;;;;4.78;3.80;;;20.40;49.90;;;;;;5054678;28;20208;-71
2023/03/17 06:40:45;;;;;;;7.93;4.22;;;20.30;49.70;;;;;;5061058;28;20201;-70
2023/03/17 06:43:34;;;;;;;6.20;4.22;;;20.30;49.80;;;;;;5059407;28;20232;-69
2023/03/17 06:46:22;;;;;;;9.95;3.50;;;20.30;49.70;;;;;;5073086;28;20196;-69
2023/03/17 06:49:12;;;;;;;6.18;4.10;;;20.30;50.00;;;;;;5065665;28;20232;-70
2023/03/17 06:52:01;;;;;;;3.47;3.17;;;20.20;49.80;;;;;;5052555;28;20209;-68
2023/03/17 06:54:50;;;;;;;4.72;3.53;;;20.20;50.00;;;;;;5072150;28;20196;-66
2023/03/17 06:57:38;;;;;;;6.03;3.55;;;20.20;50.00;;;;;;5072168;28;20617;-70
2023/03/17 07:00:27;;;;;;;5.32;3.72;;;20.20;50.20;;;;;;5061424;28;20239;-69
2023/03/17 07:03:15;;;;;;;9.20;5.68;;;20.20;50.20;;;;;;5070693;28;20270;-71
2023/03/17 07:06:04;;;;;;;10.85;5.00;;;20.30;50.30;;;;;;5072017;28;20200;-67
2023/03/17 07:08:53;;;;;;;12.23;5.70;;;20.30;50.30;;;;;;5072812;28;20759;-71
2023/03/17 07:11:41;;;;;;;7.47;4.68;;;20.30;50.10;;;;;;5070022;28;20262;-69
2023/03/17 07:14:29;;;;;;;5.25;3.67;;;20.30;50.90;;;;;;5072342;28;20220;-70
2023/03/17 07:17:18;;;;;;;5.70;4.07;;;20.30;50.30;;;;;;5058505;28;20197;-69
2023/03/17 07:20:08;;;;;;;12.25;5.28;;;20.30;50.30;;;;;;5050183;28;20308;-69
2023/03/17 07:22:56;;;;;;;9.10;5.47;;;20.40;50.40;;;;;;5051893;28;20189;-65
2023/03/17 07:25:46;;;;;;;6.32;3.78;;;20.40;50.40;;;;;;5066794;28;20208;-65
2023/03/17 07:28:34;;;;;;;9.70;4.40;;;20.30;50.20;;;;;;5049495;28;20233;-66
2023/03/17 07:31:23;;;;;;;3.72;3.25;;;20.30;50.40;;;;;;5050251;28;20217;-67
2023/03/17 07:34:11;;;;;;;5.97;3.15;;;20.30;50.50;;;;;;5052355;28;20225;-67
2023/03/17 07:36:59;;;;;;;3.63;3.00;;;20.30;50.40;;;;;;5047173;28;20204;-68
2023/03/17 07:39:48;;;;;;;4.00;3.22;;;20.20;50.30;;;;;;5044112;28;20227;-66
2023/03/17 07:42:37;;;;;;;5.47;4.18;;;20.30;50.40;;;;;;5044895;28;20205;-66
2023/03/17 07:45:26;;;;;;;8.27;5.57;;;20.30;50.50;;;;;;5046456;28;20206;-67
2023/03/17 07:48:15;;;;;;;6.75;4.82;;;20.30;64.50;;;;;;5047559;28;20213;-65
2023/03/17 07:51:04;;;;;;;8.45;4.82;;;20.30;50.40;;;;;;5044057;28;20614;-68
2023/03/17 07:54:02;;;;;;;3.90;3.40;;;20.40;50.50;;;;;;5046550;28;20225;-67
2023/03/17 07:56:50;;;;;;;7.93;4.55;;;20.30;50.70;;;;;;5048202;28;20225;-66
2023/03/17 07:59:40;;;;;;;4.10;3.20;;;20.30;50.70;;;;;;5046728;28;20330;-66
2023/03/17 08:02:28;;;;;;;3.53;3.08;;;20.30;51.00;;;;;;5044801;28;20201;-69
2023/03/17 08:05:17;;;;;;;4.82;3.65;;;20.30;51.00;;;;;;5047403;28;20198;-69
2023/03/17 08:08:05;;;;;;;4.40;3.25;;;20.20;54.50;;;;;;5039607;28;20247;-72
2023/03/17 08:11:00;;;;;;;4.95;3.05;;;20.40;50.80;;;;;;5044926;28;20204;-70
2023/03/17 08:13:48;;;;;;;4.10;3.00;;;20.40;50.60;;;;;;5045360;28;20572;-68
2023/03/17 08:16:38;;;;;;;8.13;3.58;;;20.30;50.40;;;;;;5045958;28;20216;-69
2023/03/17 08:19:26;;;;;;;7.28;3.35;;;20.40;50.70;;;;;;5045137;28;20244;-70
2023/03/17 08:22:14;;;;;;;5.78;3.03;;;20.50;50.90;;;;;;5048569;28;20282;-70
2023/03/17 08:25:03;;;;;;;3.50;2.70;;;20.50;50.70;;;;;;5062891;28;20258;-71
2023/03/17 08:27:52;;;;;;;6.68;3.10;;;20.50;50.80;;;;;;5068255;28;20200;-69
2023/03/17 08:30:41;;;;;;;6.70;3.65;;;20.50;50.70;;;;;;5064624;28;20701;-70
2023/03/17 08:33:30;;;;;;;9.60;3.15;;;20.50;50.10;;;;;;5065619;28;20220;-68
2023/03/17 08:36:20;;;;;;;5.88;2.80;;;20.50;50.80;;;;;;5047878;28;20204;-68
2023/03/17 08:39:09;;;;;;;3.53;2.47;;;20.50;50.90;;;;;;5049612;28;20589;-68
2023/03/17 08:41:57;;;;;;;6.10;3.03;;;20.50;51.50;;;;;;5049738;28;20239;-71
2023/03/17 08:44:46;;;;;;;3.15;2.72;;;20.50;50.60;;;;;;5049214;28;20202;-70
2023/03/17 08:47:34;;;;;;;3.97;2.83;;;20.40;50.80;;;;;;5048950;28;20255;-67
2023/03/17 08:50:24;;;;;;;12.05;4.20;;;20.40;50.80;;;;;;5049358;28;20742;-67
2023/03/17 08:53:13;;;;;;;5.25;3.10;;;20.40;50.80;;;;;;5049097;28;20240;-69
2023/03/17 08:56:01;;;;;;;3.55;2.55;;;20.40;51.00;;;;;;5050131;28;20409;-71
2023/03/17 08:58:50;;;;;;;2.70;2.47;;;20.40;51.00;;;;;;5046115;28;20225;-68
2023/03/17 09:01:39;;;;;;;3.83;2.67;;;20.50;50.90;;;;;;5047161;28;20698;-67
2023/03/17 09:04:27;;;;;;;5.05;2.65;;;20.50;51.00;;;;;;5050026;28;20194;-67
2023/03/17 09:07:17;;;;;;;3.70;2.90;;;20.60;51.30;;;;;;5049242;28;20206;-69
2023/03/17 09:10:07;;;;;;;5.78;2.90;;;20.60;51.10;;;;;;5049892;28;20230;-67
2023/03/17 09:13:01;;;;;;;5.43;2.70;;;20.70;51.10;;;;;;5053824;28;20549;-67
2023/03/17 09:15:50;;;;;;;3.53;2.75;;;20.70;51.00;;;;;;5053778;28;20204;-70
2023/03/17 09:18:39;;;;;;;5.55;2.97;;;20.70;51.10;;;;;;5052154;28;20225;-71
2023/03/17 09:21:27;;;;;;;3.40;2.63;;;20.70;51.10;;;;;;5053195;28;20238;-67
2023/03/17 09:24:17;;;;;;;48.22;8.68;;;20.70;51.10;;;;;;5052375;28;20743;-68
2023/03/17 09:27:05;;;;;;;58.80;11.40;;;20.70;51.20;;;;;;5033755;28;20205;-66
2023/03/17 09:29:54;;;;;;;37.70;7.85;;;20.70;51.10;;;;;;5034031;28;20229;-67
2023/03/17 09:32:43;;;;;;;24.13;6.20;;;20.70;51.20;;;;;;5033274;28;20233;-67
2023/03/17 09:35:32;;;;;;;8.77;3.90;;;20.70;51.20;;;;;;5033597;28;20592;-68
2023/03/17 09:38:21;;;;;;;18.10;4.60;;;20.70;65.90;;;;;;5032233;28;20632;-67
2023/03/17 09:41:31;;;;;;;6.32;2.47;;;20.70;51.20;;;;;;5040284;28;20194;-66
2023/03/17 09:44:32;;;;;;;9.07;3.65;;;20.60;51.10;;;;;;5049080;28;20205;-70
2023/03/17 09:47:49;;;;;;;10.85;5.15;;;20.60;51.30;;;;;;5053838;28;20205;-67
2023/03/17 09:50:43;;;;;;;9.50;3.75;;;20.60;51.40;;;;;;5052684;28;20197;-67
2023/03/17 09:53:36;;;;;;;10.07;3.78;;;20.60;51.40;;;;;;5052734;28;20197;-68
2023/03/17 09:56:28;;;;;;;5.50;3.00;;;20.60;51.40;;;;;;5053163;28;20699;-67
2023/03/17 09:59:29;;;;;;;7.38;2.53;;;20.60;51.40;;;;;;5053566;28;20229;-67
2023/03/17 10:02:22;;;;;;;6.28;3.50;;;20.70;51.50;;;;;;5052590;28;20263;-69
2023/03/17 10:05:19;;;;;;;6.47;3.28;;;20.70;52.00;;;;;;5052947;28;20276;-69
2023/03/17 10:08:14;;;;;;;6.38;2.90;;;20.80;60.60;;;;;;5048363;28;20681;-67
2023/03/17 10:11:30;;;;;;;5.43;2.78;;;20.80;51.50;;;;;;5052523;28;20228;-67
2023/03/17 10:14:39;;;;;;;3.92;2.67;;;20.70;51.20;;;;;;5052790;28;20305;-68
2023/03/17 10:17:31;;;;;;;7.78;2.55;;;20.80;51.30;;;;;;5052869;28;20342;-66
2023/03/17 10:20:26;;;;;;;4.72;2.63;;;20.90;51.50;;;;;;5052571;28;20217;-69
2023/03/17 10:23:17;;;;;;;5.32;2.30;;;20.90;51.40;;;;;;5051632;28;20683;-67
2023/03/17 10:26:08;;;;;;;2.78;2.15;;;20.90;51.40;;;;;;5052678;28;20259;-68
2023/03/17 10:28:58;;;;;;;3.45;2.33;;;20.90;52.10;;;;;;5053288;28;20226;-67
2023/03/17 10:31:46;;;;;;;2.92;1.90;;;20.90;51.50;;;;;;5050268;28;20201;-68
2023/03/17 10:34:38;;;;;;;4.68;2.53;;;20.90;51.50;;;;;;5045358;28;20217;-67
2023/03/17 10:37:28;;;;;;;5.82;2.25;;;20.80;51.60;;;;;;5052803;28;20208;-65
2023/03/17 10:40:23;;;;;;;3.47;2.35;;;20.80;51.70;;;;;;5052253;28;20261;-67
2023/03/17 10:43:17;;;;;;;3.25;2.33;;;20.80;51.70;;;;;;5032283;28;20594;-68
2023/03/17 10:46:17;;;;;;;10.57;2.63;;;20.70;51.70;;;;;;5033268;28;20197;-67
2023/03/17 10:49:09;;;;;;;5.00;2.25;;;20.70;51.80;;;;;;5033062;28;20264;-67
2023/03/17 10:51:57;;;;;;;5.03;3.38;;;20.70;51.80;;;;;;5033333;28;20260;-67
2023/03/17 10:54:47;;;;;;;6.53;4.53;;;20.70;51.90;;;;;;5051398;28;20228;-70
2023/03/17 10:57:37;;;;;;;6.90;4.32;;;20.70;52.00;;;;;;5052590;28;20277;-67
2023/03/17 11:00:32;;;;;;;7.13;3.67;;;20.70;52.00;;;;;;5051786;28;20279;-68
2023/03/17 11:03:25;;;;;;;5.97;3.45;;;20.80;52.00;;;;;;5051239;28;20205;-66
2023/03/17 11:06:15;;;;;;;3.88;2.63;;;20.90;52.00;;;;;;5052177;28;20212;-66
2023/03/17 11:09:09;;;;;;;5.50;3.03;;;21.00;52.00;;;;;;5052448;28;20333;-69
2023/03/17 11:12:03;;;;;;;3.75;2.63;;;21.00;52.10;;;;;;5051899;28;20703;-68
2023/03/17 11:14:58;;;;;;;3.05;2.22;;;21.10;52.00;;;;;;5051882;28;20213;-70
2023/03/17 11:17:54;;;;;;;4.45;2.30;;;21.20;52.00;;;;;;5051398;28;20205;-70
2023/03/17 11:20:49;;;;;;;4.13;2.45;;;21.20;52.00;;;;;;5051801;28;20212;-68
2023/03/17 11:23:46;;;;;;;5.32;2.17;;;21.20;52.00;;;;;;5051457;28;20213;-67
2023/03/17 11:26:55;;;;;;;3.13;1.95;;;21.20;52.00;;;;;;5052358;28;20284;-70
2023/03/17 11:29:53;;;;;;;3.25;2.05;;;21.30;52.00;;;;;;5051672;28;20225;-67
2023/03/17 11:32:45;;;;;;;6.45;2.72;;;21.20;52.00;;;;;;5052129;28;20198;-68
2023/03/17 11:35:46;;;;;;;2.30;2.10;;;21.20;52.00;;;;;;5043627;28;20217;-67
2023/03/17 11:38:41;;;;;;;3.60;2.45;;;21.10;52.00;;;;;;5052233;28;20235;-67
2023/03/17 11:41:43;;;;;;;2.13;1.92;;;21.10;52.00;;;;;;5048771;28;20286;-68
2023/03/17 11:44:56;;;;;;;4.15;2.67;;;21.10;52.10;;;;;;5052090;28;20197;-68
2023/03/17 11:48:21;;;;;;;5.55;2.28;;;21.00;52.20;;;;;;5051570;28;20670;-69
2023/03/17 11:51:19;;;;;;;5.40;2.53;;;21.00;52.10;;;;;;5050940;28;20473;-68
2023/03/17 11:54:13;;;;;;;4.70;2.70;;;21.00;52.30;;;;;;5052214;28;20251;-67
2023/03/17 11:57:04;;;;;;;6.07;2.70;;;21.00;52.30;;;;;;5052046;28;20815;-67
2023/03/17 11:59:58;;;;;;;6.07;3.30;;;21.00;52.30;;;;;;5051184;28;20221;-68
2023/03/17 12:02:53;;;;;;;6.07;3.17;;;21.10;52.50;;;;;;5051724;28;20232;-67
2023/03/17 12:05:41;;;;;;;3.20;2.40;;;21.10;52.30;;;;;;5051231;28;20289;-67
2023/03/17 12:08:37;;;;;;;3.40;2.00;;;21.20;52.30;;;;;;5051876;28;20298;-67
2023/03/17 12:11:29;;;;;;;5.05;2.30;;;21.20;52.20;;;;;;5031146;28;20241;-67
2023/03/17 12:14:26;;;;;;;4.28;2.05;;;21.20;52.30;;;;;;5031400;28;20263;-68
2023/03/17 12:17:19;;;;;;;2.88;2.10;;;21.20;52.20;;;;;;5050995;28;20213;-68
2023/03/17 12:20:17;;;;;;;3.67;1.63;;;21.30;52.30;;;;;;5050207;28;20252;-67
2023/03/17 12:23:11;;;;;;;3.80;2.35;;;21.30;52.20;;;;;;5050806;28;20211;-69
2023/03/17 12:26:04;;;;;;;2.80;2.17;;;21.30;52.30;;;;;;5051384;28;20267;-67
2023/03/17 12:28:58;;;;;;;6.10;2.28;;;21.30;52.30;;;;;;5043914;28;20679;-68
2023/03/17 12:31:52;;;;;;;2.83;2.00;;;21.30;52.30;;;;;;5041506;28;20753;-70
2023/03/17 12:34:44;;;;;;;3.42;1.80;;;21.30;52.40;;;;;;5046609;28;20503;-67
2023/03/17 12:37:32;;;;;;;3.25;1.98;;;21.30;52.40;;;;;;5051049;28;20228;-68
2023/03/17 12:40:25;;;;;;;2.45;1.60;;;21.20;52.20;;;;;;5050703;28;20840;-68
2023/03/17 12:43:35;;;;;;;2.30;1.75;;;21.20;52.30;;;;;;5041382;28;20288;-67
2023/03/17 12:46:56;;;;;;;4.05;1.67;;;21.20;52.50;;;;;;5052105;28;20262;-67
2023/03/17 12:50:21;;;;;;;3.10;2.13;;;21.20;52.50;;;;;;5055294;28;20308;-67
2023/03/17 12:53:26;;;;;;;2.58;1.70;;;21.20;52.60;;;;;;4954983;28;20207;-67
2023/03/17 12:56:21;;;;;;;2.03;1.80;;;21.10;52.50;;;;;;5054293;28;20220;-66
2023/03/17 12:59:16;;;;;;;2.25;1.73;;;21.10;52.50;;;;;;5032928;28;20222;-66
2023/03/17 13:02:16;;;;;;;3.20;2.03;;;21.10;52.50;;;;;;5032129;28;20344;-71
2023/03/17 13:05:07;;;;;;;2.08;1.75;;;21.20;52.70;;;;;;5034996;28;20197;-68
2023/03/17 13:07:59;;;;;;;2.10;1.73;;;21.20;52.50;;;;;;5034227;28;20221;-67
2023/03/17 13:10:47;;;;;;;2.50;2.08;;;21.20;52.60;;;;;;5034535;28;20678;-66
2023/03/17 13:13:44;;;;;;;1.52;1.42;;;21.20;52.60;;;;;;5034515;28;20768;-68
2023/03/17 13:16:36;;;;;;;1.95;1.63;;;21.30;52.50;;;;;;5035564;28;20249;-70
2023/03/17 13:19:31;;;;;;;3.13;1.92;;;21.30;52.50;;;;;;5034511;28;20222;-67
2023/03/17 13:22:34;;;;;;;2.13;1.65;;;21.40;52.50;;;;;;5034517;28;20736;-68
2023/03/17 13:25:34;;;;;;;3.88;2.25;;;21.40;52.50;;;;;;5034245;28;20225;-67
2023/03/17 13:28:25;;;;;;;2.45;1.95;;;21.60;67.30;;;;;;5034215;28;20206;-69
2023/03/17 13:31:36;;;;;;;2.60;2.10;;;21.40;52.40;;;;;;5034977;28;20697;-69
2023/03/17 13:34:28;;;;;;;3.17;1.70;;;21.40;52.40;;;;;;5034444;28;20198;-68
2023/03/17 13:37:24;;;;;;;1.95;1.70;;;21.40;52.50;;;;;;5034147;28;20249;-66
2023/03/17 13:40:18;;;;;;;2.78;2.00;;;21.40;52.40;;;;;;5034485;28;20221;-67
2023/03/17 13:43:20;;;;;;;2.78;1.50;;;21.40;52.40;;;;;;5034455;28;20202;-67
2023/03/17 13:46:33;;;;;;;1.77;1.38;;;21.40;52.50;;;;;;5033506;28;20327;-66
2023/03/17 13:49:28;;;;;;;1.50;1.40;;;21.40;52.60;;;;;;5033949;28;20228;-66
2023/03/17 13:52:23;;;;;;;3.83;1.75;;;21.40;52.60;;;;;;5034408;28;20202;-67
2023/03/17 13:55:34;;;;;;;2.63;1.60;;;21.40;52.60;;;;;;5033901;28;20198;-67
2023/03/17 13:58:33;;;;;;;4.25;1.80;;;21.30;67.30;;;;;;5033824;28;20200;-72
2023/03/17 14:01:22;;;;;;;4.32;1.70;;;21.40;52.60;;;;;;5040454;28;20581;-67
2023/03/17 14:04:22;;;;;;;1.98;1.67;;;21.40;52.60;;;;;;5053387;28;20283;-67
2023/03/17 14:07:18;;;;;;;1.55;1.38;;;21.40;52.50;;;;;;5052848;28;20693;-68
2023/03/17 14:10:07;;;;;;;2.28;1.65;;;21.40;52.60;;;;;;5054147;28;20725;-69
2023/03/17 14:13:02;;;;;;;6.32;1.85;;;21.50;52.70;;;;;;5053110;28;20206;-68
2023/03/17 14:15:55;;;;;;;1.60;1.42;;;21.40;52.50;;;;;;5053429;28;20204;-67
2023/03/17 14:18:48;;;;;;;2.85;1.90;;;21.50;52.70;;;;;;5053201;28;20221;-68
2023/03/17 14:21:36;;;;;;;2.05;1.80;;;21.50;52.60;;;;;;5052993;28;20243;-68
2023/03/17 14:24:31;;;;;;;2.08;1.40;;;21.50;52.60;;;;;;5053501;28;20208;-67
2023/03/17 14:27:21;;;;;;;3.45;1.70;;;21.50;52.60;;;;;;5053685;28;20200;-66
2023/03/17 14:30:17;;;;;;;3.22;1.90;;;21.40;52.50;;;;;;5053430;28;20230;-67
2023/03/17 14:33:12;;;;;;;2.00;1.55;;;21.50;52.70;;;;;;5053193;28;20208;-68
2023/03/17 14:36:03;;;;;;;2.17;1.98;;;21.50;52.70;;;;;;5053691;28;20212;-69
2023/03/17 14:38:53;;;;;;;2.90;1.70;;;21.50;52.70;;;;;;5053310;28;20217;-67
2023/03/17 14:41:43;;;;;;;3.85;1.92;;;21.50;52.80;;;;;;5053006;28;20298;-67
2023/03/17 14:44:38;;;;;;;2.55;1.67;;;21.40;52.70;;;;;;5052321;28;20201;-67
2023/03/17 14:47:26;;;;;;;2.10;1.52;;;21.40;52.80;;;;;;5053503;28;20233;-67
2023/03/17 14:50:17;;;;;;;1.58;1.48;;;21.40;52.80;;;;;;5052694;28;20265;-66